sensor_id;sensor_type;location;lat;lon;timestamp;temperature;humidity
33837;DHT22;20140;49.356;8.812;2023-05-10T00:00:41;13.70;99.90
33837;DHT22;20140;49.356;8.812;2023-05-10T00:03:06;13.60;99.90
33837;DHT22;20140;49.356;8.812;2023-05-10T00:05:32;13.60;99.90
33837;DHT22;20140;49.356;8.812;2023-05-10T00:07:58;13.60;99.90
33837;DHT22;20140;49.356;8.812;2023-05-10T00:10:23;13.60;99.90
33837;DHT22;20140;49.356;8.812;2023-05-10T00:12:49;13.60;99.90
33837;DHT22;20140;49.356;8.812;2023-05-10T00:15:14;13.50;99.90
33837;DHT22;20140;49.356;8.812;2023-05-10T00:17:40;13.60;99.90
33837;DHT22;20140;49.356;8.812;2023-05-10T00:20:06;13.50;99.90
33837;DHT22;20140;49.356;8.812;2023-05-10T00:22:32;13.50;99.90
33837;DHT22;20140;49.356;8.812;2023-05-10T00:24:58;13.50;99.90
33837;DHT22;20140;49.356;8.812;2023-05-10T00:27:23;13.50;99.90
33837;DHT22;20140;49.356;8.812;2023-05-10T00:29:49;13.50;99.90
33837;DHT22;20140;49.356;8.812;2023-05-10T00:32:15;13.50;99.90
33837;DHT22;20140;49.356;8.812;2023-05-10T00:34:40;13.50;99.90
33837;DHT22;20140;49.356;8.812;2023-05-10T00:37:06;13.50;99.90
33837;DHT22;20140;49.356;8.812;2023-05-10T00:39:31;13.50;99.90
33837;DHT22;20140;49.356;8.812;2023-05-10T00:41:57;13.50;99.90
33837;DHT22;20140;49.356;8.812;2023-05-10T00:44:22;13.50;99.90
33837;DHT22;20140;49.356;8.812;2023-05-10T00:46:49;13.40;99.90
33837;DHT22;20140;49.356;8.812;2023-05-10T00:49:15;13.40;99.90
33837;DHT22;20140;49.356;8.812;2023-05-10T00:51:41;13.40;99.90
33837;DHT22;20140;49.356;8.812;2023-05-10T00:54:09;13.40;99.90
33837;DHT22;20140;49.356;8.812;2023-05-10T00:56:36;13.40;99.90
33837;DHT22;20140;49.356;8.812;2023-05-10T00:59:01;13.40;99.90
33837;DHT22;20140;49.356;8.812;2023-05-10T01:01:28;13.30;99.90
33837;DHT22;20140;49.356;8.812;2023-05-10T01:03:54;13.40;99.90
33837;DHT22;20140;49.356;8.812;2023-05-10T01:06:20;13.40;99.90
33837;DHT22;20140;49.356;8.812;2023-05-10T01:08:46;13.40;99.90
33837;DHT22;20140;49.356;8.812;2023-05-10T01:11:13;13.40;99.90
33837;DHT22;20140;49.356;8.812;2023-05-10T01:13:41;13.40;99.90
33837;DHT22;20140;49.356;8.812;2023-05-10T01:16:07;13.40;99.90
33837;DHT22;20140;49.356;8.812;2023-05-10T01:18:36;13.40;99.90
33837;DHT22;20140;49.356;8.812;2023-05-10T01:21:36;13.40;99.90
33837;DHT22;20140;49.356;8.812;2023-05-10T01:27:37;13.40;99.90
33837;DHT22;20140;49.356;8.812;2023-05-10T01:30:41;13.40;99.90
33837;DHT22;20140;49.356;8.812;2023-05-10T01:33:19;13.40;99.90
33837;DHT22;20140;49.356;8.812;2023-05-10T01:36:08;13.40;99.90
33837;DHT22;20140;49.356;8.812;2023-05-10T01:38:46;13.40;99.90
33837;DHT22;20140;49.356;8.812;2023-05-10T01:46:36;13.30;99.90
33837;DHT22;20140;49.356;8.812;2023-05-10T01:49:06;13.30;99.90
33837;DHT22;20140;49.356;8.812;2023-05-10T01:51:47;13.30;99.90
33837;DHT22;20140;49.356;8.812;2023-05-10T01:54:14;13.20;99.90
33837;DHT22;20140;49.356;8.812;2023-05-10T01:56:41;13.20;99.90
33837;DHT22;20140;49.356;8.812;2023-05-10T01:59:12;13.20;99.90
33837;DHT22;20140;49.356;8.812;2023-05-10T02:01:39;13.20;99.90
33837;DHT22;20140;49.356;8.812;2023-05-10T02:04:07;13.20;99.90
33837;DHT22;20140;49.356;8.812;2023-05-10T02:06:34;13.20;99.90
33837;DHT22;20140;49.356;8.812;2023-05-10T02:09:01;13.10;99.90
33837;DHT22;20140;49.356;8.812;2023-05-10T02:11:29;13.10;99.90
33837;DHT22;20140;49.356;8.812;2023-05-10T02:13:55;13.20;99.90
33837;DHT22;20140;49.356;8.812;2023-05-10T02:16:24;13.20;99.90
33837;DHT22;20140;49.356;8.812;2023-05-10T02:18:52;13.20;99.90
33837;DHT22;20140;49.356;8.812;2023-05-10T02:21:19;13.20;99.90
33837;DHT22;20140;49.356;8.812;2023-05-10T02:23:46;13.10;99.90
33837;DHT22;20140;49.356;8.812;2023-05-10T02:26:14;13.20;99.90
33837;DHT22;20140;49.356;8.812;2023-05-10T02:28:40;13.10;99.90
33837;DHT22;20140;49.356;8.812;2023-05-10T02:31:08;13.10;99.90
33837;DHT22;20140;49.356;8.812;2023-05-10T02:33:37;13.20;99.90
33837;DHT22;20140;49.356;8.812;2023-05-10T02:36:04;13.10;99.90
33837;DHT22;20140;49.356;8.812;2023-05-10T02:38:31;13.10;99.90
33837;DHT22;20140;49.356;8.812;2023-05-10T02:40:59;13.20;99.90
33837;DHT22;20140;49.356;8.812;2023-05-10T02:43:25;13.10;99.90
33837;DHT22;20140;49.356;8.812;2023-05-10T02:45:51;13.10;99.90
33837;DHT22;20140;49.356;8.812;2023-05-10T02:48:17;13.10;99.90
33837;DHT22;20140;49.356;8.812;2023-05-10T02:50:44;13.10;99.90
33837;DHT22;20140;49.356;8.812;2023-05-10T02:53:15;13.10;99.90
33837;DHT22;20140;49.356;8.812;2023-05-10T02:55:41;13.10;99.90
33837;DHT22;20140;49.356;8.812;2023-05-10T02:58:07;13.10;99.90
33837;DHT22;20140;49.356;8.812;2023-05-10T03:00:33;13.20;99.90
33837;DHT22;20140;49.356;8.812;2023-05-10T03:02:58;13.20;99.90
33837;DHT22;20140;49.356;8.812;2023-05-10T03:05:24;13.20;99.90
33837;DHT22;20140;49.356;8.812;2023-05-10T03:07:50;13.10;99.90
33837;DHT22;20140;49.356;8.812;2023-05-10T03:10:16;13.10;99.90
33837;DHT22;20140;49.356;8.812;2023-05-10T03:13:16;13.00;99.90
33837;DHT22;20140;49.356;8.812;2023-05-10T03:16:08;13.10;99.90
33837;DHT22;20140;49.356;8.812;2023-05-10T03:19:01;13.00;99.90
33837;DHT22;20140;49.356;8.812;2023-05-10T03:21:29;13.10;99.90
33837;DHT22;20140;49.356;8.812;2023-05-10T03:24:08;13.10;99.90
33837;DHT22;20140;49.356;8.812;2023-05-10T03:26:37;13.10;99.90
33837;DHT22;20140;49.356;8.812;2023-05-10T03:29:04;13.10;99.90
33837;DHT22;20140;49.356;8.812;2023-05-10T03:31:31;13.00;99.90
33837;DHT22;20140;49.356;8.812;2023-05-10T03:33:57;13.00;99.90
33837;DHT22;20140;49.356;8.812;2023-05-10T03:36:22;13.00;99.90
33837;DHT22;20140;49.356;8.812;2023-05-10T03:38:48;13.10;99.90
33837;DHT22;20140;49.356;8.812;2023-05-10T03:41:13;13.00;99.90
33837;DHT22;20140;49.356;8.812;2023-05-10T03:43:39;13.10;99.90
33837;DHT22;20140;49.356;8.812;2023-05-10T03:46:05;13.00;99.90
33837;DHT22;20140;49.356;8.812;2023-05-10T03:48:32;13.00;99.90
33837;DHT22;20140;49.356;8.812;2023-05-10T03:50:58;13.10;99.90
33837;DHT22;20140;49.356;8.812;2023-05-10T03:53:23;13.10;99.90
33837;DHT22;20140;49.356;8.812;2023-05-10T03:55:49;13.00;99.90
33837;DHT22;20140;49.356;8.812;2023-05-10T03:58:15;13.10;99.90
33837;DHT22;20140;49.356;8.812;2023-05-10T04:00:40;13.00;99.90
33837;DHT22;20140;49.356;8.812;2023-05-10T04:03:11;13.10;99.90
33837;DHT22;20140;49.356;8.812;2023-05-10T04:05:36;13.10;99.90
33837;DHT22;20140;49.356;8.812;2023-05-10T04:08:03;13.10;99.90
33837;DHT22;20140;49.356;8.812;2023-05-10T04:10:28;13.10;99.90
33837;DHT22;20140;49.356;8.812;2023-05-10T04:12:54;13.10;99.90
33837;DHT22;20140;49.356;8.812;2023-05-10T04:15:19;13.10;99.90
33837;DHT22;20140;49.356;8.812;2023-05-10T04:17:45;13.10;99.90
33837;DHT22;20140;49.356;8.812;2023-05-10T04:20:11;13.10;99.90
33837;DHT22;20140;49.356;8.812;2023-05-10T04:22:37;13.10;99.90
33837;DHT22;20140;49.356;8.812;2023-05-10T04:25:03;13.10;99.90
33837;DHT22;20140;49.356;8.812;2023-05-10T04:27:28;13.10;99.90
33837;DHT22;20140;49.356;8.812;2023-05-10T04:29:54;13.10;99.90
33837;DHT22;20140;49.356;8.812;2023-05-10T04:32:19;13.10;99.90
33837;DHT22;20140;49.356;8.812;2023-05-10T04:34:45;13.10;99.90
33837;DHT22;20140;49.356;8.812;2023-05-10T04:37:11;13.10;99.90
33837;DHT22;20140;49.356;8.812;2023-05-10T04:39:36;13.10;99.90
33837;DHT22;20140;49.356;8.812;2023-05-10T04:42:03;13.10;99.90
33837;DHT22;20140;49.356;8.812;2023-05-10T04:44:29;13.10;99.90
33837;DHT22;20140;49.356;8.812;2023-05-10T04:46:54;13.10;99.90
33837;DHT22;20140;49.356;8.812;2023-05-10T04:49:20;13.10;99.90
33837;DHT22;20140;49.356;8.812;2023-05-10T04:51:46;13.10;99.90
33837;DHT22;20140;49.356;8.812;2023-05-10T04:54:11;13.10;99.90
33837;DHT22;20140;49.356;8.812;2023-05-10T04:56:37;13.10;99.90
33837;DHT22;20140;49.356;8.812;2023-05-10T04:59:02;13.10;99.90
33837;DHT22;20140;49.356;8.812;2023-05-10T05:01:28;13.20;99.90
33837;DHT22;20140;49.356;8.812;2023-05-10T05:03:53;13.20;99.90
33837;DHT22;20140;49.356;8.812;2023-05-10T05:06:19;13.20;99.90
33837;DHT22;20140;49.356;8.812;2023-05-10T05:08:46;13.20;99.90
33837;DHT22;20140;49.356;8.812;2023-05-10T05:11:11;13.20;99.90
33837;DHT22;20140;49.356;8.812;2023-05-10T05:13:37;13.20;99.90
33837;DHT22;20140;49.356;8.812;2023-05-10T05:16:03;13.20;99.90
33837;DHT22;20140;49.356;8.812;2023-05-10T05:18:28;13.30;99.90
33837;DHT22;20140;49.356;8.812;2023-05-10T05:20:54;13.30;99.90
33837;DHT22;20140;49.356;8.812;2023-05-10T05:23:19;13.30;99.90
33837;DHT22;20140;49.356;8.812;2023-05-10T05:25:46;13.30;99.90
33837;DHT22;20140;49.356;8.812;2023-05-10T05:28:12;13.30;99.90
33837;DHT22;20140;49.356;8.812;2023-05-10T05:30:37;13.30;99.90
33837;DHT22;20140;49.356;8.812;2023-05-10T05:33:03;13.40;99.90
33837;DHT22;20140;49.356;8.812;2023-05-10T05:35:28;13.40;99.90
33837;DHT22;20140;49.356;8.812;2023-05-10T05:37:54;13.40;99.90
33837;DHT22;20140;49.356;8.812;2023-05-10T05:40:19;13.50;99.90
33837;DHT22;20140;49.356;8.812;2023-05-10T05:42:45;13.50;99.90
33837;DHT22;20140;49.356;8.812;2023-05-10T05:45:11;13.50;99.90
33837;DHT22;20140;49.356;8.812;2023-05-10T05:47:39;13.50;99.90
33837;DHT22;20140;49.356;8.812;2023-05-10T05:50:05;13.60;99.90
33837;DHT22;20140;49.356;8.812;2023-05-10T05:52:31;13.60;99.90
33837;DHT22;20140;49.356;8.812;2023-05-10T05:54:56;13.60;99.90
33837;DHT22;20140;49.356;8.812;2023-05-10T05:57:22;13.60;99.90
33837;DHT22;20140;49.356;8.812;2023-05-10T05:59:48;13.60;99.90
33837;DHT22;20140;49.356;8.812;2023-05-10T06:02:13;13.60;99.90
33837;DHT22;20140;49.356;8.812;2023-05-10T06:04:39;13.70;99.90
33837;DHT22;20140;49.356;8.812;2023-05-10T06:07:04;13.70;99.90
33837;DHT22;20140;49.356;8.812;2023-05-10T06:09:30;13.70;99.90
33837;DHT22;20140;49.356;8.812;2023-05-10T06:11:55;13.70;99.90
33837;DHT22;20140;49.356;8.812;2023-05-10T06:14:21;13.80;99.90
33837;DHT22;20140;49.356;8.812;2023-05-10T06:16:47;13.80;99.90
33837;DHT22;20140;49.356;8.812;2023-05-10T06:19:12;13.90;99.90
33837;DHT22;20140;49.356;8.812;2023-05-10T06:21:38;13.90;99.90
33837;DHT22;20140;49.356;8.812;2023-05-10T06:24:04;13.90;99.90
33837;DHT22;20140;49.356;8.812;2023-05-10T06:26:30;13.90;99.90
33837;DHT22;20140;49.356;8.812;2023-05-10T06:28:56;13.90;99.90
33837;DHT22;20140;49.356;8.812;2023-05-10T06:31:23;13.90;99.90
33837;DHT22;20140;49.356;8.812;2023-05-10T06:33:48;13.90;99.90
33837;DHT22;20140;49.356;8.812;2023-05-10T06:36:14;13.80;99.90
33837;DHT22;20140;49.356;8.812;2023-05-10T06:38:39;13.70;99.90
33837;DHT22;20140;49.356;8.812;2023-05-10T06:41:05;13.70;99.90
33837;DHT22;20140;49.356;8.812;2023-05-10T06:43:31;13.70;99.90
33837;DHT22;20140;49.356;8.812;2023-05-10T06:45:57;13.80;99.90
33837;DHT22;20140;49.356;8.812;2023-05-10T06:48:22;13.80;99.90
33837;DHT22;20140;49.356;8.812;2023-05-10T06:50:48;13.90;99.90
33837;DHT22;20140;49.356;8.812;2023-05-10T06:53:13;13.90;99.90
33837;DHT22;20140;49.356;8.812;2023-05-10T06:55:39;13.90;99.90
33837;DHT22;20140;49.356;8.812;2023-05-10T06:58:05;14.00;99.90
33837;DHT22;20140;49.356;8.812;2023-05-10T07:00:31;14.00;99.90
33837;DHT22;20140;49.356;8.812;2023-05-10T07:02:57;14.00;99.90
33837;DHT22;20140;49.356;8.812;2023-05-10T07:05:22;14.00;99.90
33837;DHT22;20140;49.356;8.812;2023-05-10T07:07:48;14.00;99.90
33837;DHT22;20140;49.356;8.812;2023-05-10T07:10:13;14.00;99.90
33837;DHT22;20140;49.356;8.812;2023-05-10T07:12:39;14.00;99.90
33837;DHT22;20140;49.356;8.812;2023-05-10T07:15:05;14.10;99.90
33837;DHT22;20140;49.356;8.812;2023-05-10T07:17:31;14.20;99.90
33837;DHT22;20140;49.356;8.812;2023-05-10T07:19:58;14.30;99.90
33837;DHT22;20140;49.356;8.812;2023-05-10T07:22:24;14.40;99.90
33837;DHT22;20140;49.356;8.812;2023-05-10T07:24:50;14.40;99.90
33837;DHT22;20140;49.356;8.812;2023-05-10T07:27:15;14.30;99.90
33837;DHT22;20140;49.356;8.812;2023-05-10T07:29:41;14.30;99.90
33837;DHT22;20140;49.356;8.812;2023-05-10T07:32:06;14.30;99.90
33837;DHT22;20140;49.356;8.812;2023-05-10T07:34:32;14.30;99.90
33837;DHT22;20140;49.356;8.812;2023-05-10T07:37:00;14.30;99.90
33837;DHT22;20140;49.356;8.812;2023-05-10T07:39:27;14.30;99.90
33837;DHT22;20140;49.356;8.812;2023-05-10T07:41:53;14.20;99.90
33837;DHT22;20140;49.356;8.812;2023-05-10T07:44:18;14.20;99.90
33837;DHT22;20140;49.356;8.812;2023-05-10T07:46:45;14.30;99.90
33837;DHT22;20140;49.356;8.812;2023-05-10T07:49:11;14.30;99.90
33837;DHT22;20140;49.356;8.812;2023-05-10T07:51:36;14.20;99.90
33837;DHT22;20140;49.356;8.812;2023-05-10T07:54:02;14.20;99.90
33837;DHT22;20140;49.356;8.812;2023-05-10T07:56:29;14.30;99.90
33837;DHT22;20140;49.356;8.812;2023-05-10T07:58:55;14.40;99.90
33837;DHT22;20140;49.356;8.812;2023-05-10T08:01:22;14.50;99.90
33837;DHT22;20140;49.356;8.812;2023-05-10T08:03:48;14.60;99.90
33837;DHT22;20140;49.356;8.812;2023-05-10T08:06:14;14.70;99.90
33837;DHT22;20140;49.356;8.812;2023-05-10T08:08:40;14.80;99.90
33837;DHT22;20140;49.356;8.812;2023-05-10T08:11:06;14.80;99.90
33837;DHT22;20140;49.356;8.812;2023-05-10T08:13:32;14.90;99.90
33837;DHT22;20140;49.356;8.812;2023-05-10T08:15:58;15.10;99.90
33837;DHT22;20140;49.356;8.812;2023-05-10T08:18:23;15.20;99.90
33837;DHT22;20140;49.356;8.812;2023-05-10T08:20:51;15.20;99.90
33837;DHT22;20140;49.356;8.812;2023-05-10T08:23:16;15.10;99.90
33837;DHT22;20140;49.356;8.812;2023-05-10T08:25:42;15.10;99.90
33837;DHT22;20140;49.356;8.812;2023-05-10T08:28:07;15.30;99.90
33837;DHT22;20140;49.356;8.812;2023-05-10T08:30:33;15.20;99.90
33837;DHT22;20140;49.356;8.812;2023-05-10T08:32:58;15.10;99.90
33837;DHT22;20140;49.356;8.812;2023-05-10T08:35:24;15.10;99.90
33837;DHT22;20140;49.356;8.812;2023-05-10T08:37:50;15.20;99.90
33837;DHT22;20140;49.356;8.812;2023-05-10T08:40:19;15.10;99.90
33837;DHT22;20140;49.356;8.812;2023-05-10T08:42:51;15.10;99.90
33837;DHT22;20140;49.356;8.812;2023-05-10T08:45:22;15.00;99.90
33837;DHT22;20140;49.356;8.812;2023-05-10T08:47:48;15.00;99.90
33837;DHT22;20140;49.356;8.812;2023-05-10T08:50:15;15.20;99.90
33837;DHT22;20140;49.356;8.812;2023-05-10T08:52:41;15.30;99.90
33837;DHT22;20140;49.356;8.812;2023-05-10T08:55:07;15.30;99.90
33837;DHT22;20140;49.356;8.812;2023-05-10T08:57:33;15.30;99.90
33837;DHT22;20140;49.356;8.812;2023-05-10T09:00:00;15.40;99.90
33837;DHT22;20140;49.356;8.812;2023-05-10T09:02:26;15.50;99.90
33837;DHT22;20140;49.356;8.812;2023-05-10T09:04:52;15.70;99.90
33837;DHT22;20140;49.356;8.812;2023-05-10T09:07:18;15.90;99.90
33837;DHT22;20140;49.356;8.812;2023-05-10T09:09:45;15.90;99.90
33837;DHT22;20140;49.356;8.812;2023-05-10T09:12:11;15.90;99.90
33837;DHT22;20140;49.356;8.812;2023-05-10T09:14:37;15.90;99.90
33837;DHT22;20140;49.356;8.812;2023-05-10T09:17:04;15.90;99.90
33837;DHT22;20140;49.356;8.812;2023-05-10T09:19:30;16.20;99.90
33837;DHT22;20140;49.356;8.812;2023-05-10T09:21:55;16.00;99.90
33837;DHT22;20140;49.356;8.812;2023-05-10T09:24:25;15.80;99.90
33837;DHT22;20140;49.356;8.812;2023-05-10T09:26:51;15.80;99.90
33837;DHT22;20140;49.356;8.812;2023-05-10T09:29:17;15.60;99.90
33837;DHT22;20140;49.356;8.812;2023-05-10T09:31:50;15.50;99.90
33837;DHT22;20140;49.356;8.812;2023-05-10T09:34:18;15.50;99.90
33837;DHT22;20140;49.356;8.812;2023-05-10T09:36:52;15.40;99.90
33837;DHT22;20140;49.356;8.812;2023-05-10T09:39:18;15.60;99.90
33837;DHT22;20140;49.356;8.812;2023-05-10T09:41:44;15.70;99.90
33837;DHT22;20140;49.356;8.812;2023-05-10T09:44:09;15.80;99.90
33837;DHT22;20140;49.356;8.812;2023-05-10T09:46:35;15.80;99.90
33837;DHT22;20140;49.356;8.812;2023-05-10T09:49:01;15.80;99.90
33837;DHT22;20140;49.356;8.812;2023-05-10T09:51:26;15.70;99.90
33837;DHT22;20140;49.356;8.812;2023-05-10T09:54:10;15.70;99.90
33837;DHT22;20140;49.356;8.812;2023-05-10T09:56:36;15.80;99.90
33837;DHT22;20140;49.356;8.812;2023-05-10T09:59:06;15.80;99.90
33837;DHT22;20140;49.356;8.812;2023-05-10T10:01:32;15.90;99.90
33837;DHT22;20140;49.356;8.812;2023-05-10T10:03:58;16.10;99.90
33837;DHT22;20140;49.356;8.812;2023-05-10T10:06:24;16.30;99.90
33837;DHT22;20140;49.356;8.812;2023-05-10T10:08:51;16.50;99.90
33837;DHT22;20140;49.356;8.812;2023-05-10T10:11:16;16.70;99.90
33837;DHT22;20140;49.356;8.812;2023-05-10T10:13:42;16.50;99.90
33837;DHT22;20140;49.356;8.812;2023-05-10T10:16:09;16.50;99.90
33837;DHT22;20140;49.356;8.812;2023-05-10T10:18:36;16.40;99.90
33837;DHT22;20140;49.356;8.812;2023-05-10T10:21:06;16.50;99.90
33837;DHT22;20140;49.356;8.812;2023-05-10T10:23:32;16.50;99.90
33837;DHT22;20140;49.356;8.812;2023-05-10T10:25:58;16.60;99.90
33837;DHT22;20140;49.356;8.812;2023-05-10T10:28:37;16.60;99.90
33837;DHT22;20140;49.356;8.812;2023-05-10T10:36:25;16.70;99.90
33837;DHT22;20140;49.356;8.812;2023-05-10T10:38:59;16.70;99.90
33837;DHT22;20140;49.356;8.812;2023-05-10T10:41:35;16.70;99.90
33837;DHT22;20140;49.356;8.812;2023-05-10T10:52:21;17.00;99.90
33837;DHT22;20140;49.356;8.812;2023-05-10T10:55:08;16.90;99.90
33837;DHT22;20140;49.356;8.812;2023-05-10T11:00:31;16.90;99.90
33837;DHT22;20140;49.356;8.812;2023-05-10T11:03:11;16.80;99.90
33837;DHT22;20140;49.356;8.812;2023-05-10T11:05:43;16.90;99.90
33837;DHT22;20140;49.356;8.812;2023-05-10T11:08:30;16.70;99.90
33837;DHT22;20140;49.356;8.812;2023-05-10T11:13:45;16.20;99.90
33837;DHT22;20140;49.356;8.812;2023-05-10T11:16:22;16.50;99.90
33837;DHT22;20140;49.356;8.812;2023-05-10T11:18:53;16.40;99.90
33837;DHT22;20140;49.356;8.812;2023-05-10T11:21:19;16.30;99.90
33837;DHT22;20140;49.356;8.812;2023-05-10T11:23:49;16.40;99.90
33837;DHT22;20140;49.356;8.812;2023-05-10T11:26:15;16.30;99.90
33837;DHT22;20140;49.356;8.812;2023-05-10T11:28:45;16.50;99.90
33837;DHT22;20140;49.356;8.812;2023-05-10T11:31:14;16.70;99.90
33837;DHT22;20140;49.356;8.812;2023-05-10T11:36:20;17.00;99.90
33837;DHT22;20140;49.356;8.812;2023-05-10T11:38:46;17.10;99.90
33837;DHT22;20140;49.356;8.812;2023-05-10T11:41:13;16.80;99.90
33837;DHT22;20140;49.356;8.812;2023-05-10T11:43:39;17.20;99.90
33837;DHT22;20140;49.356;8.812;2023-05-10T11:46:11;17.30;99.90
33837;DHT22;20140;49.356;8.812;2023-05-10T11:48:39;17.30;99.90
33837;DHT22;20140;49.356;8.812;2023-05-10T11:51:06;17.20;99.90
33837;DHT22;20140;49.356;8.812;2023-05-10T11:53:33;17.20;99.90
33837;DHT22;20140;49.356;8.812;2023-05-10T11:56:09;17.00;99.90
33837;DHT22;20140;49.356;8.812;2023-05-10T11:58:36;17.30;99.90
33837;DHT22;20140;49.356;8.812;2023-05-10T12:01:03;17.30;99.90
33837;DHT22;20140;49.356;8.812;2023-05-10T12:03:29;17.50;99.90
33837;DHT22;20140;49.356;8.812;2023-05-10T12:05:55;17.60;99.90
33837;DHT22;20140;49.356;8.812;2023-05-10T12:08:29;17.00;99.90
33837;DHT22;20140;49.356;8.812;2023-05-10T12:11:07;17.30;99.90
33837;DHT22;20140;49.356;8.812;2023-05-10T12:13:37;17.40;99.90
33837;DHT22;20140;49.356;8.812;2023-05-10T12:16:15;17.60;99.90
33837;DHT22;20140;49.356;8.812;2023-05-10T12:18:41;17.80;99.90
33837;DHT22;20140;49.356;8.812;2023-05-10T12:21:10;17.40;99.90
33837;DHT22;20140;49.356;8.812;2023-05-10T12:23:36;17.30;99.90
33837;DHT22;20140;49.356;8.812;2023-05-10T12:26:04;17.10;99.90
33837;DHT22;20140;49.356;8.812;2023-05-10T12:28:31;16.80;99.90
33837;DHT22;20140;49.356;8.812;2023-05-10T12:30:58;16.30;99.90
33837;DHT22;20140;49.356;8.812;2023-05-10T12:33:24;15.90;99.90
33837;DHT22;20140;49.356;8.812;2023-05-10T12:35:51;15.80;99.90
33837;DHT22;20140;49.356;8.812;2023-05-10T12:40:58;15.50;99.90
33837;DHT22;20140;49.356;8.812;2023-05-10T12:43:23;15.60;99.90
33837;DHT22;20140;49.356;8.812;2023-05-10T12:45:49;15.70;99.90
33837;DHT22;20140;49.356;8.812;2023-05-10T12:48:15;15.70;99.90
33837;DHT22;20140;49.356;8.812;2023-05-10T12:50:41;16.00;99.90
33837;DHT22;20140;49.356;8.812;2023-05-10T12:53:06;16.10;99.90
33837;DHT22;20140;49.356;8.812;2023-05-10T12:55:32;16.20;99.90
33837;DHT22;20140;49.356;8.812;2023-05-10T12:57:57;16.60;99.90
33837;DHT22;20140;49.356;8.812;2023-05-10T13:00:23;17.10;99.90
33837;DHT22;20140;49.356;8.812;2023-05-10T13:02:48;17.00;99.90
33837;DHT22;20140;49.356;8.812;2023-05-10T13:05:14;17.20;99.90
33837;DHT22;20140;49.356;8.812;2023-05-10T13:07:39;17.30;99.90
33837;DHT22;20140;49.356;8.812;2023-05-10T13:10:06;17.40;99.90
33837;DHT22;20140;49.356;8.812;2023-05-10T13:12:32;17.50;99.90
33837;DHT22;20140;49.356;8.812;2023-05-10T13:14:58;17.20;99.90
33837;DHT22;20140;49.356;8.812;2023-05-10T13:17:25;17.20;99.90
33837;DHT22;20140;49.356;8.812;2023-05-10T13:19:50;17.40;99.90
33837;DHT22;20140;49.356;8.812;2023-05-10T13:22:16;18.10;99.90
33837;DHT22;20140;49.356;8.812;2023-05-10T13:24:41;17.80;99.90
33837;DHT22;20140;49.356;8.812;2023-05-10T13:27:07;18.20;99.90
33837;DHT22;20140;49.356;8.812;2023-05-10T13:29:33;18.10;99.90
33837;DHT22;20140;49.356;8.812;2023-05-10T13:31:58;18.30;99.90
33837;DHT22;20140;49.356;8.812;2023-05-10T13:34:24;18.80;99.90
33837;DHT22;20140;49.356;8.812;2023-05-10T13:36:50;18.80;99.90
33837;DHT22;20140;49.356;8.812;2023-05-10T13:39:15;18.70;99.90
33837;DHT22;20140;49.356;8.812;2023-05-10T13:41:42;18.80;99.90
33837;DHT22;20140;49.356;8.812;2023-05-10T13:44:07;18.90;99.90
33837;DHT22;20140;49.356;8.812;2023-05-10T13:46:33;18.80;99.90
33837;DHT22;20140;49.356;8.812;2023-05-10T13:48:58;19.00;99.90
33837;DHT22;20140;49.356;8.812;2023-05-10T13:51:24;18.80;99.90
33837;DHT22;20140;49.356;8.812;2023-05-10T13:53:49;18.00;99.90
33837;DHT22;20140;49.356;8.812;2023-05-10T13:56:15;17.80;99.90
33837;DHT22;20140;49.356;8.812;2023-05-10T13:58:41;17.90;99.90
33837;DHT22;20140;49.356;8.812;2023-05-10T14:01:06;17.90;99.90
33837;DHT22;20140;49.356;8.812;2023-05-10T14:03:32;18.10;99.90
33837;DHT22;20140;49.356;8.812;2023-05-10T14:05:58;18.10;99.90
33837;DHT22;20140;49.356;8.812;2023-05-10T14:08:23;18.30;99.90
33837;DHT22;20140;49.356;8.812;2023-05-10T14:10:49;18.50;99.90
33837;DHT22;20140;49.356;8.812;2023-05-10T14:13:15;18.40;99.90
33837;DHT22;20140;49.356;8.812;2023-05-10T14:15:41;18.50;99.90
33837;DHT22;20140;49.356;8.812;2023-05-10T14:18:07;18.40;99.90
33837;DHT22;20140;49.356;8.812;2023-05-10T14:20:32;18.30;99.90
33837;DHT22;20140;49.356;8.812;2023-05-10T14:22:59;18.20;99.90
33837;DHT22;20140;49.356;8.812;2023-05-10T14:25:25;18.30;99.90
33837;DHT22;20140;49.356;8.812;2023-05-10T14:27:51;18.30;99.90
33837;DHT22;20140;49.356;8.812;2023-05-10T14:30:19;18.00;99.90
33837;DHT22;20140;49.356;8.812;2023-05-10T14:32:45;18.00;99.90
33837;DHT22;20140;49.356;8.812;2023-05-10T14:35:10;17.80;99.90
33837;DHT22;20140;49.356;8.812;2023-05-10T14:37:36;17.80;99.90
33837;DHT22;20140;49.356;8.812;2023-05-10T14:40:02;17.90;99.90
33837;DHT22;20140;49.356;8.812;2023-05-10T14:42:29;17.90;99.90
33837;DHT22;20140;49.356;8.812;2023-05-10T14:44:55;18.00;99.90
33837;DHT22;20140;49.356;8.812;2023-05-10T14:47:20;18.10;99.90
33837;DHT22;20140;49.356;8.812;2023-05-10T14:49:46;18.30;99.90
33837;DHT22;20140;49.356;8.812;2023-05-10T14:52:11;18.20;99.90
33837;DHT22;20140;49.356;8.812;2023-05-10T14:54:37;18.40;99.90
33837;DHT22;20140;49.356;8.812;2023-05-10T14:57:03;18.40;99.90
33837;DHT22;20140;49.356;8.812;2023-05-10T14:59:29;18.20;99.90
33837;DHT22;20140;49.356;8.812;2023-05-10T15:01:54;18.10;99.90
33837;DHT22;20140;49.356;8.812;2023-05-10T15:04:20;18.00;99.90
33837;DHT22;20140;49.356;8.812;2023-05-10T15:06:46;17.70;99.90
33837;DHT22;20140;49.356;8.812;2023-05-10T15:09:12;17.70;99.90
33837;DHT22;20140;49.356;8.812;2023-05-10T15:11:40;17.80;99.90
33837;DHT22;20140;49.356;8.812;2023-05-10T15:14:06;18.10;99.90
33837;DHT22;20140;49.356;8.812;2023-05-10T15:16:31;17.80;99.90
33837;DHT22;20140;49.356;8.812;2023-05-10T15:18:57;18.00;99.90
33837;DHT22;20140;49.356;8.812;2023-05-10T15:21:22;17.90;99.90
33837;DHT22;20140;49.356;8.812;2023-05-10T15:23:48;17.80;99.90
33837;DHT22;20140;49.356;8.812;2023-05-10T15:26:14;17.60;99.90
33837;DHT22;20140;49.356;8.812;2023-05-10T15:28:39;17.90;99.90
33837;DHT22;20140;49.356;8.812;2023-05-10T15:31:05;18.10;99.90
33837;DHT22;20140;49.356;8.812;2023-05-10T15:33:30;17.90;99.90
33837;DHT22;20140;49.356;8.812;2023-05-10T15:35:56;17.90;99.90
33837;DHT22;20140;49.356;8.812;2023-05-10T15:38:21;17.90;99.90
33837;DHT22;20140;49.356;8.812;2023-05-10T15:40:47;17.80;99.90
33837;DHT22;20140;49.356;8.812;2023-05-10T15:43:13;17.90;99.90
33837;DHT22;20140;49.356;8.812;2023-05-10T15:45:39;18.20;99.90
33837;DHT22;20140;49.356;8.812;2023-05-10T15:48:04;18.20;99.90
33837;DHT22;20140;49.356;8.812;2023-05-10T15:50:30;18.50;99.90
33837;DHT22;20140;49.356;8.812;2023-05-10T15:52:55;18.20;99.90
33837;DHT22;20140;49.356;8.812;2023-05-10T15:55:21;18.30;99.90
33837;DHT22;20140;49.356;8.812;2023-05-10T15:57:46;18.50;99.90
33837;DHT22;20140;49.356;8.812;2023-05-10T16:00:13;18.20;99.90
33837;DHT22;20140;49.356;8.812;2023-05-10T16:02:40;18.20;99.90